createdAt,value
2017-09-26T00:00:14.950Z,0
2017-09-26T00:01:14.971Z,0
2017-09-26T00:02:29.567Z,0
2017-09-26T00:03:15.012Z,0
2017-09-26T00:04:15.037Z,0
2017-09-26T00:05:15.066Z,0
2017-09-26T00:06:15.089Z,0
2017-09-26T00:07:15.149Z,0
2017-09-26T00:08:29.705Z,0
2017-09-26T00:09:14.503Z,0
2017-09-26T00:10:14.853Z,0
2017-09-26T00:11:15.194Z,0
2017-09-26T00:12:15.216Z,0
2017-09-26T00:13:15.277Z,0
2017-09-26T00:14:14.930Z,0
2017-09-26T00:15:15.285Z,0
2017-09-26T00:16:15.314Z,0
2017-09-26T00:17:29.898Z,0
2017-09-26T00:18:14.696Z,0
2017-09-26T00:19:14.716Z,0
2017-09-26T00:20:15.391Z,0
2017-09-26T00:21:15.416Z,0
2017-09-26T00:22:15.443Z,0
2017-09-26T00:23:15.458Z,0
2017-09-26T00:24:15.520Z,0
2017-09-26T00:25:15.509Z,0
2017-09-26T00:26:15.525Z,0
2017-09-26T00:27:15.222Z,0
2017-09-26T00:28:15.564Z,0
2017-09-26T00:29:15.592Z,0
2017-09-26T00:30:15.612Z,0
2017-09-26T00:31:30.204Z,0
2017-09-26T00:33:15.679Z,0
2017-09-26T00:34:15.728Z,0
2017-09-26T00:35:29.962Z,0
2017-09-26T00:36:15.742Z,0
2017-09-26T00:38:15.462Z,0
2017-09-26T00:39:15.809Z,0
2017-09-26T00:40:30.396Z,0
2017-09-26T00:41:15.852Z,0
2017-09-26T00:42:15.545Z,0
2017-09-26T00:43:15.571Z,0
2017-09-26T00:44:15.584Z,0
2017-09-26T00:45:15.937Z,0
2017-09-26T00:46:15.630Z,0
2017-09-26T00:47:15.650Z,0
2017-09-26T00:48:30.571Z,0
2017-09-26T00:49:30.594Z,0
2017-09-26T00:50:30.612Z,0
2017-09-26T00:51:15.737Z,0
2017-09-26T00:52:15.762Z,0
2017-09-26T00:53:16.109Z,0
2017-09-26T00:54:15.802Z,0
2017-09-26T00:55:15.826Z,0
2017-09-26T00:56:30.746Z,0
2017-09-26T00:57:15.876Z,0
2017-09-26T00:58:15.899Z,0
2017-09-26T00:59:15.915Z,0
2017-09-26T01:00:15.934Z,0
2017-09-26T01:02:15.977Z,0
2017-09-26T01:03:16.002Z,0
2017-09-26T01:04:16.022Z,0
2017-09-26T01:05:30.938Z,0
2017-09-26T01:06:16.393Z,0
2017-09-26T01:08:16.435Z,0
2017-09-26T01:09:16.456Z,0
2017-09-26T01:10:16.155Z,0
2017-09-26T01:11:30.742Z,0
2017-09-26T01:12:31.089Z,0
2017-09-26T01:14:16.563Z,0
2017-09-26T01:15:16.269Z,0
2017-09-26T01:16:16.613Z,0
2017-09-26T01:17:16.310Z,0
2017-09-26T01:18:16.648Z,0
2017-09-26T01:20:16.716Z,0
2017-09-26T01:21:16.387Z,0
2017-09-26T01:22:16.737Z,0
2017-09-26T01:24:16.783Z,0
2017-09-26T01:25:16.478Z,0
2017-09-26T01:26:16.501Z,0
2017-09-26T01:27:16.840Z,0
2017-09-26T01:28:31.440Z,0
2017-09-26T01:29:16.941Z,0
2017-09-26T01:31:16.935Z,0
2017-09-26T01:32:16.952Z,0
2017-09-26T01:33:16.976Z,0
2017-09-26T01:34:17.008Z,0
2017-09-26T01:35:16.365Z,0
2017-09-26T01:36:16.387Z,0
2017-09-26T01:37:16.737Z,0
2017-09-26T01:38:16.430Z,0
2017-09-26T01:39:16.775Z,0
2017-09-26T01:40:17.124Z,0
2017-09-26T01:43:31.435Z,0
2017-09-26T01:44:17.215Z,0
2017-09-26T01:45:17.240Z,0
2017-09-26T01:46:17.258Z,0
2017-09-26T01:47:17.280Z,0
2017-09-26T01:48:17.326Z,0
2017-09-26T01:49:17.326Z,0
2017-09-26T01:50:16.688Z,0
2017-09-26T01:51:17.044Z,0
2017-09-26T01:52:17.101Z,0
2017-09-26T01:53:17.084Z,0
2017-09-26T01:54:17.108Z,0
2017-09-26T01:55:17.128Z,0
2017-09-26T01:56:17.146Z,0
2017-09-26T01:57:17.490Z,0
2017-09-26T01:58:17.191Z,0
2017-09-26T01:59:17.213Z,0
2017-09-26T02:00:17.236Z,0
2017-09-26T02:01:31.823Z,0
2017-09-26T02:02:32.175Z,0
2017-09-26T02:03:16.973Z,0
2017-09-26T02:04:17.324Z,0
2017-09-26T02:05:17.345Z,0
2017-09-26T02:06:31.939Z,0
2017-09-26T02:07:16.731Z,0
2017-09-26T02:08:17.130Z,0
2017-09-26T02:09:32.321Z,0
2017-09-26T02:10:32.343Z,0
2017-09-26T02:11:17.471Z,0
2017-09-26T02:12:17.498Z,0
2017-09-26T02:13:32.407Z,0
2017-09-26T02:14:32.426Z,0
2017-09-26T02:15:32.453Z,0
2017-09-26T02:16:17.577Z,0
2017-09-26T02:17:17.924Z,0
2017-09-26T02:18:17.948Z,0
2017-09-26T02:19:17.315Z,0
2017-09-26T02:20:17.340Z,0
2017-09-26T02:21:17.687Z,0
2017-09-26T02:22:17.704Z,0
2017-09-26T02:23:18.054Z,0
2017-09-26T02:24:17.747Z,0
2017-09-26T02:25:17.444Z,0
2017-09-26T02:26:32.361Z,0
2017-09-26T02:27:17.819Z,0
2017-09-26T02:28:32.731Z,0
2017-09-26T02:29:18.191Z,0
2017-09-26T02:30:18.206Z,0
2017-09-26T02:31:32.791Z,0
2017-09-26T02:32:18.254Z,0
2017-09-26T02:33:18.272Z,0
2017-09-26T02:34:18.290Z,0
2017-09-26T02:35:17.991Z,0
2017-09-26T02:36:18.338Z,0
2017-09-26T02:37:32.928Z,0
2017-09-26T02:38:18.052Z,0
2017-09-26T02:39:18.398Z,0
2017-09-26T02:40:18.422Z,0
2017-09-26T02:41:33.009Z,0
2017-09-26T02:42:32.706Z,0
2017-09-26T02:43:18.157Z,0
2017-09-26T02:44:18.527Z,0
2017-09-26T02:45:18.526Z,0
2017-09-26T02:46:18.556Z,0
2017-09-26T02:47:33.139Z,0
2017-09-26T02:48:18.620Z,0
2017-09-26T02:49:18.630Z,0
2017-09-26T02:50:18.652Z,0
2017-09-26T02:51:32.897Z,0
2017-09-26T02:53:18.382Z,0
2017-09-26T02:54:18.407Z,0
2017-09-26T02:55:18.418Z,0
2017-09-26T02:56:18.463Z,0
2017-09-26T02:57:18.798Z,0
2017-09-26T02:58:33.052Z,0
2017-09-26T02:59:18.509Z,0
2017-09-26T03:00:18.541Z,0
2017-09-26T03:01:18.550Z,0
2017-09-26T03:02:18.897Z,0
2017-09-26T03:03:33.485Z,0
2017-09-26T03:04:18.939Z,0
2017-09-26T03:05:18.629Z,0
2017-09-26T03:07:18.672Z,0
2017-09-26T03:08:18.700Z,0
2017-09-26T03:09:18.725Z,0
2017-09-26T03:10:19.070Z,0
2017-09-26T03:11:19.092Z,0
2017-09-26T03:12:18.788Z,0
2017-09-26T03:13:18.809Z,0
2017-09-26T03:14:19.155Z,0
2017-09-26T03:15:18.860Z,0
2017-09-26T03:16:18.871Z,0
2017-09-26T03:17:19.225Z,0
2017-09-26T03:18:33.484Z,0
2017-09-26T03:19:18.935Z,0
2017-09-26T03:20:18.958Z,0
2017-09-26T03:21:18.979Z,0
2017-09-26T03:22:19.328Z,0
2017-09-26T03:23:33.923Z,0
2017-09-26T03:24:19.042Z,0
2017-09-26T03:25:19.399Z,0
2017-09-26T03:26:19.411Z,0
2017-09-26T03:27:19.429Z,0
2017-09-26T03:28:19.179Z,0
2017-09-26T03:29:19.150Z,0
2017-09-26T03:30:19.207Z,0
2017-09-26T03:31:19.198Z,0
2017-09-26T03:33:34.170Z,0
2017-09-26T03:34:18.937Z,0
2017-09-26T03:35:19.608Z,0
2017-09-26T03:36:19.658Z,0
2017-09-26T03:38:19.673Z,0
2017-09-26T03:39:19.369Z,0
2017-09-26T03:40:19.721Z,0
2017-09-26T03:41:19.769Z,0
2017-09-26T03:42:19.765Z,0
2017-09-26T03:43:19.785Z,0
2017-09-26T03:44:19.802Z,0
2017-09-26T03:45:19.829Z,0
2017-09-26T03:46:19.520Z,0
2017-09-26T03:47:34.438Z,0
2017-09-26T03:48:34.137Z,0
2017-09-26T03:49:19.580Z,0
2017-09-26T03:50:34.499Z,0
2017-09-26T03:51:19.630Z,0
2017-09-26T03:52:19.973Z,0
2017-09-26T03:53:19.999Z,0
2017-09-26T03:54:34.264Z,0
2017-09-26T03:55:33.955Z,0
2017-09-26T03:57:19.759Z,0
2017-09-26T03:58:34.682Z,0
2017-09-26T03:59:19.150Z,0
2017-09-26T04:00:19.822Z,0
2017-09-26T04:01:19.852Z,0
2017-09-26T04:02:20.193Z,0
2017-09-26T04:03:34.459Z,0
2017-09-26T04:04:34.805Z,0
2017-09-26T04:05:19.933Z,0
2017-09-26T04:06:34.521Z,0
2017-09-26T04:07:20.307Z,0
2017-09-26T04:08:19.669Z,0
2017-09-26T04:09:34.586Z,0
2017-09-26T04:10:20.042Z,0
2017-09-26T04:11:34.304Z,0
2017-09-26T04:12:19.762Z,0
2017-09-26T04:13:20.107Z,0
2017-09-26T04:14:35.023Z,0
2017-09-26T04:15:20.146Z,0
2017-09-26T04:16:35.063Z,0
2017-09-26T04:17:35.085Z,0
2017-09-26T04:18:20.214Z,0
2017-09-26T04:21:20.276Z,0
2017-09-26T04:22:35.196Z,0
2017-09-26T04:23:20.643Z,0
2017-09-26T04:24:20.349Z,0
2017-09-26T04:25:20.693Z,0
2017-09-26T04:26:20.389Z,0
2017-09-26T04:27:20.733Z,0
2017-09-26T04:29:20.780Z,0
2017-09-26T04:30:20.475Z,0
2017-09-26T04:31:35.070Z,0
2017-09-26T04:33:35.435Z,0
2017-09-26T04:34:20.886Z,0
2017-09-26T04:35:35.152Z,4
2017-09-26T04:36:20.606Z,4
2017-09-26T04:37:20.954Z,4
2017-09-26T04:38:35.214Z,4
2017-09-26T04:40:35.259Z,4
2017-09-26T04:41:21.040Z,4
2017-09-26T04:42:20.408Z,4
2017-09-26T04:45:20.799Z,12
2017-09-26T04:46:20.823Z,12
2017-09-26T04:47:20.843Z,16
2017-09-26T04:48:21.192Z,16
2017-09-26T04:49:21.214Z,16
2017-09-26T04:50:21.235Z,20
2017-09-26T04:51:20.928Z,20
2017-09-26T04:52:35.523Z,24
2017-09-26T04:53:35.543Z,32
2017-09-26T04:54:35.900Z,32
2017-09-26T04:55:21.350Z,40
2017-09-26T04:56:20.714Z,48
2017-09-26T04:57:21.386Z,52
2017-09-26T04:58:21.412Z,60
2017-09-26T05:00:21.448Z,64
2017-09-26T05:01:36.043Z,68
2017-09-26T05:02:21.495Z,76
2017-09-26T05:03:21.121Z,80
2017-09-26T05:04:21.451Z,92
2017-09-26T05:05:21.169Z,100
2017-09-26T05:06:21.497Z,108
2017-09-26T05:07:21.519Z,120
2017-09-26T05:08:21.553Z,132
2017-09-26T05:09:21.566Z,148
2017-09-26T05:10:21.276Z,156
2017-09-26T05:11:35.880Z,160
2017-09-26T05:12:35.905Z,176
2017-09-26T05:13:35.925Z,176
2017-09-26T05:14:21.035Z,180
2017-09-26T05:15:35.967Z,176
2017-09-26T05:16:21.732Z,188
2017-09-26T05:17:21.741Z,200
2017-09-26T05:18:21.761Z,204
2017-09-26T05:19:21.783Z,220
2017-09-26T05:20:21.487Z,236
2017-09-26T05:21:21.831Z,264
2017-09-26T05:22:21.846Z,284
2017-09-26T05:23:21.905Z,304
2017-09-26T05:24:21.888Z,312
2017-09-26T05:25:36.186Z,324
2017-09-26T05:26:21.299Z,320
2017-09-26T05:27:35.959Z,344
2017-09-26T05:28:36.619Z,320
2017-09-26T05:29:36.591Z,332
2017-09-26T05:30:22.019Z,352
2017-09-26T05:31:21.405Z,356
2017-09-26T05:32:21.432Z,384
2017-09-26T05:33:22.090Z,396
2017-09-26T05:34:21.789Z,476
2017-09-26T05:35:21.811Z,548
2017-09-26T05:36:21.512Z,536
2017-09-26T05:37:22.170Z,536
2017-09-26T05:38:21.871Z,544
2017-09-26T05:39:22.223Z,524
2017-09-26T05:40:21.925Z,512
2017-09-26T05:41:36.530Z,504
2017-09-26T05:43:21.667Z,564
2017-09-26T05:44:22.006Z,552
2017-09-26T05:45:22.027Z,544
2017-09-26T05:46:22.051Z,524
2017-09-26T05:47:21.753Z,544
2017-09-26T05:49:21.800Z,640
2017-09-26T05:50:22.457Z,668
2017-09-26T05:51:22.475Z,644
2017-09-26T05:52:22.182Z,608
2017-09-26T05:53:22.202Z,648
2017-09-26T05:54:22.546Z,640
2017-09-26T05:56:22.268Z,544
2017-09-26T05:57:37.201Z,556
2017-09-26T05:58:22.635Z,548
2017-09-26T05:59:37.242Z,596
2017-09-26T06:00:22.677Z,576
2017-09-26T06:01:22.058Z,588
2017-09-26T06:02:22.400Z,604
2017-09-26T06:03:22.743Z,624
2017-09-26T06:04:22.124Z,640
2017-09-26T06:05:22.467Z,624
2017-09-26T06:06:22.175Z,664
2017-09-26T06:07:22.506Z,696
2017-09-26T06:08:22.526Z,724
2017-09-26T06:09:22.551Z,824
2017-09-26T06:10:22.580Z,856
2017-09-26T06:11:22.599Z,952
2017-09-26T06:12:22.297Z,960
2017-09-26T06:13:37.550Z,1140
2017-09-26T06:14:22.659Z,1096
2017-09-26T06:15:22.688Z,1072
2017-09-26T06:16:22.070Z,1104
2017-09-26T06:18:22.752Z,1148
2017-09-26T06:19:22.782Z,1168
2017-09-26T06:20:22.486Z,1224
2017-09-26T06:21:37.405Z,1176
2017-09-26T06:22:22.838Z,1128
2017-09-26T06:23:23.176Z,1116
2017-09-26T06:24:22.879Z,1256
2017-09-26T06:25:22.911Z,1208
2017-09-26T06:26:22.925Z,1228
2017-09-26T06:27:22.629Z,1276
2017-09-26T06:28:37.878Z,1364
2017-09-26T06:29:23.315Z,1324
2017-09-26T06:30:23.008Z,1444
2017-09-26T06:31:37.946Z,1444
2017-09-26T06:32:23.376Z,1424
2017-09-26T06:33:23.398Z,1352
2017-09-26T06:34:23.422Z,1424
2017-09-26T06:35:38.034Z,1520
2017-09-26T06:36:23.471Z,1568
2017-09-26T06:37:38.075Z,1504
2017-09-26T06:38:23.189Z,1524
2017-09-26T06:39:23.217Z,1612
2017-09-26T06:40:23.234Z,1624
2017-09-26T06:41:23.574Z,1748
2017-09-26T06:42:22.956Z,1960
2017-09-26T06:43:38.216Z,1892
2017-09-26T06:44:23.642Z,1804
2017-09-26T06:45:23.344Z,1760
2017-09-26T06:46:23.683Z,1764
2017-09-26T06:47:23.070Z,1696
2017-09-26T06:48:23.422Z,1716
2017-09-26T06:49:23.801Z,1928
2017-09-26T06:50:23.776Z,1880
2017-09-26T06:51:23.157Z,1984
2017-09-26T06:52:23.496Z,2096
2017-09-26T06:53:38.430Z,2068
2017-09-26T06:54:23.859Z,2076
2017-09-26T06:55:23.900Z,2120
2017-09-26T06:56:23.911Z,2096
2017-09-26T06:57:23.942Z,2064
2017-09-26T06:58:23.954Z,1848
2017-09-26T06:59:23.975Z,1792
2017-09-26T07:00:38.582Z,1804
2017-09-26T07:01:24.011Z,1992
2017-09-26T07:03:38.336Z,2192
2017-09-26T07:04:24.082Z,2236
2017-09-26T07:05:38.379Z,2148
2017-09-26T07:07:38.749Z,2340
2017-09-26T07:08:24.171Z,2356
2017-09-26T07:09:23.874Z,2284
2017-09-26T07:10:24.214Z,2296
2017-09-26T07:11:23.919Z,2564
2017-09-26T07:12:24.267Z,2844
2017-09-26T07:13:24.284Z,2792
2017-09-26T07:14:24.305Z,4036
2017-09-26T07:15:24.325Z,3928
2017-09-26T07:16:38.938Z,3364
2017-09-26T07:17:24.379Z,3368
2017-09-26T07:18:24.080Z,3124
2017-09-26T07:19:24.095Z,3032
2017-09-26T07:20:38.714Z,3192
2017-09-26T07:21:24.463Z,2768
2017-09-26T07:23:39.098Z,2472
2017-09-26T07:24:24.210Z,2852
2017-09-26T07:25:24.233Z,2820
2017-09-26T07:26:24.573Z,2956
2017-09-26T07:27:24.600Z,2948
2017-09-26T07:28:24.298Z,2924
2017-09-26T07:29:24.322Z,3268
2017-09-26T07:30:24.347Z,3456
2017-09-26T07:31:24.686Z,3668
2017-09-26T07:32:53.889Z,3500
2017-09-26T07:33:24.732Z,3212
2017-09-26T07:34:24.764Z,2872
2017-09-26T07:35:24.776Z,2844
2017-09-26T07:37:24.848Z,3412
2017-09-26T07:38:24.540Z,3616
2017-09-26T07:39:24.550Z,3584
2017-09-26T07:40:24.897Z,3608
2017-09-26T07:41:24.913Z,3884
2017-09-26T07:42:24.963Z,4036
2017-09-26T07:43:24.958Z,4496
2017-09-26T07:44:24.980Z,4720
2017-09-26T07:45:25.004Z,4208
2017-09-26T07:46:24.702Z,4420
2017-09-26T07:47:25.046Z,4628
2017-09-26T07:48:39.343Z,4612
2017-09-26T07:49:25.093Z,4616
2017-09-26T07:50:25.121Z,4440
2017-09-26T07:51:24.820Z,4108
2017-09-26T07:52:39.754Z,3752
2017-09-26T07:53:25.186Z,3780
2017-09-26T07:54:39.797Z,4236
2017-09-26T07:55:24.907Z,4200
2017-09-26T07:56:25.245Z,4276
2017-09-26T07:57:25.273Z,4604
2017-09-26T07:58:25.299Z,4644
2017-09-26T07:59:24.998Z,5384
2017-09-26T08:00:25.344Z,7204
2017-09-26T08:01:25.365Z,8196
2017-09-26T08:02:25.387Z,8212
2017-09-26T08:03:40.003Z,7848
2017-09-26T08:04:25.444Z,7440
2017-09-26T08:05:25.455Z,6388
2017-09-26T08:06:40.072Z,5660
2017-09-26T08:07:25.504Z,5440
2017-09-26T08:08:25.526Z,5832
2017-09-26T08:09:25.280Z,6440
2017-09-26T08:10:25.252Z,7004
2017-09-26T08:11:25.276Z,7864
2017-09-26T08:12:25.303Z,7156
2017-09-26T08:13:25.321Z,6888
2017-09-26T08:14:25.677Z,7604
2017-09-26T08:15:25.687Z,7488
2017-09-26T08:16:25.390Z,7116
2017-09-26T08:17:25.417Z,7020
2017-09-26T08:18:25.440Z,6728
2017-09-26T08:19:25.777Z,6424
2017-09-26T08:20:25.481Z,6752
2017-09-26T08:21:25.504Z,6804
2017-09-26T08:22:25.846Z,6348
2017-09-26T08:23:25.866Z,6696
2017-09-26T08:24:40.167Z,7752
2017-09-26T08:26:25.947Z,7968
2017-09-26T08:27:25.962Z,8380
2017-09-26T08:28:40.576Z,8648
2017-09-26T08:29:26.005Z,9464
2017-09-26T08:30:26.037Z,7764
2017-09-26T08:31:25.415Z,7224
2017-09-26T08:32:26.073Z,7056
2017-09-26T08:33:26.102Z,7536
2017-09-26T08:34:26.122Z,8880
2017-09-26T08:35:40.742Z,7392
2017-09-26T08:36:25.861Z,7116
2017-09-26T08:37:40.469Z,7188
2017-09-26T08:38:40.813Z,7140
2017-09-26T08:39:26.242Z,7424
2017-09-26T08:40:26.268Z,6928
2017-09-26T08:41:25.975Z,6916
2017-09-26T08:42:26.317Z,6188
2017-09-26T08:43:26.017Z,5580
2017-09-26T08:44:26.045Z,5048
2017-09-26T08:45:26.065Z,4832
2017-09-26T08:46:26.404Z,4616
2017-09-26T08:47:26.112Z,4424
2017-09-26T08:48:26.454Z,4236
2017-09-26T08:49:26.155Z,4092
2017-09-26T08:51:40.478Z,4140
2017-09-26T08:52:26.230Z,4156
2017-09-26T08:53:26.567Z,4148
2017-09-26T08:54:25.956Z,4108
2017-09-26T08:55:26.620Z,4064
2017-09-26T08:56:26.320Z,4084
2017-09-26T08:57:26.351Z,4076
2017-09-26T08:58:26.050Z,4040
2017-09-26T08:59:26.076Z,4084
2017-09-26T09:00:26.415Z,4104
2017-09-26T09:01:26.756Z,4120
2017-09-26T09:02:26.788Z,4056
2017-09-26T09:03:26.804Z,3976
2017-09-26T09:04:26.829Z,3896
2017-09-26T09:05:26.538Z,3972
2017-09-26T09:06:26.235Z,4036
2017-09-26T09:07:41.488Z,3988
2017-09-26T09:08:25.965Z,3900
2017-09-26T09:10:26.973Z,3948
2017-09-26T09:11:26.353Z,4284
2017-09-26T09:13:27.078Z,4596
2017-09-26T09:14:41.652Z,4628
2017-09-26T09:16:27.110Z,4868
2017-09-26T09:17:27.135Z,4820
2017-09-26T09:18:26.836Z,4952
2017-09-26T09:19:26.859Z,4996
2017-09-26T09:20:26.879Z,5004
2017-09-26T09:21:27.224Z,4944
2017-09-26T09:22:27.367Z,4824
2017-09-26T09:23:41.862Z,4608
2017-09-26T09:24:26.978Z,4576
2017-09-26T09:25:27.317Z,4476
2017-09-26T09:26:27.343Z,4480
2017-09-26T09:27:41.319Z,4880
2017-09-26T09:28:27.072Z,5048
2017-09-26T09:29:27.113Z,5424
2017-09-26T09:30:27.437Z,5976
2017-09-26T09:31:27.140Z,6796
2017-09-26T09:32:27.163Z,8676
2017-09-26T09:33:27.511Z,9524
2017-09-26T09:34:27.526Z,8868
2017-09-26T09:35:27.242Z,9728
2017-09-26T09:36:27.576Z,10616
2017-09-26T09:37:27.282Z,11028
2017-09-26T09:38:41.899Z,14100
2017-09-26T09:39:27.645Z,12456
2017-09-26T09:40:27.350Z,12820
2017-09-26T09:41:27.372Z,10432
2017-09-26T09:42:27.757Z,10328
2017-09-26T09:43:42.015Z,10808
2017-09-26T09:44:27.765Z,9960
2017-09-26T09:45:42.382Z,9992
2017-09-26T09:46:27.816Z,10164
2017-09-26T09:47:27.846Z,10788
2017-09-26T09:48:27.547Z,9784
2017-09-26T09:49:27.570Z,8740
2017-09-26T09:50:27.597Z,7672
2017-09-26T09:51:27.932Z,7676
2017-09-26T09:52:28.001Z,7264
2017-09-26T09:53:27.982Z,7240
2017-09-26T09:54:27.370Z,8496
2017-09-26T09:55:28.031Z,9512
2017-09-26T09:56:42.646Z,9400
2017-09-26T09:57:27.769Z,8892
2017-09-26T09:58:28.108Z,7304
2017-09-26T09:59:27.809Z,6744
2017-09-26T10:00:28.150Z,6684
2017-09-26T10:01:27.545Z,6472
2017-09-26T10:02:28.197Z,6384
2017-09-26T10:03:28.221Z,6404
2017-09-26T10:04:27.930Z,6992
2017-09-26T10:05:28.270Z,7972
2017-09-26T10:06:28.300Z,8628
2017-09-26T10:07:28.002Z,8432
2017-09-26T10:08:28.343Z,7864
2017-09-26T10:09:28.369Z,7040
2017-09-26T10:10:42.665Z,6172
2017-09-26T10:11:28.099Z,5700
2017-09-26T10:12:28.441Z,5564
2017-09-26T10:13:28.462Z,5796
2017-09-26T10:14:43.118Z,6356
2017-09-26T10:16:43.136Z,7096
2017-09-26T10:17:28.241Z,7084
2017-09-26T10:18:28.588Z,7492
2017-09-26T10:19:28.611Z,8028
2017-09-26T10:20:27.993Z,9032
2017-09-26T10:21:28.337Z,8804
2017-09-26T10:22:28.413Z,8932
2017-09-26T10:23:28.713Z,9044
2017-09-26T10:24:28.408Z,8520
2017-09-26T10:25:28.751Z,8292
2017-09-26T10:26:43.048Z,9256
2017-09-26T10:27:28.482Z,9556
2017-09-26T10:28:28.823Z,10224
2017-09-26T10:30:28.236Z,10760
2017-09-26T10:31:28.897Z,10952
2017-09-26T10:32:43.515Z,10916
2017-09-26T10:33:28.307Z,10692
2017-09-26T10:34:28.970Z,10156
2017-09-26T10:35:28.359Z,9804
2017-09-26T10:36:28.378Z,9276
2017-09-26T10:37:29.054Z,9240
2017-09-26T10:38:28.751Z,9756
2017-09-26T10:39:28.457Z,8916
2017-09-26T10:40:28.800Z,8648
2017-09-26T10:41:43.738Z,8660
2017-09-26T10:42:43.763Z,8644
2017-09-26T10:44:28.898Z,8228
2017-09-26T10:45:43.512Z,7604
2017-09-26T10:46:29.266Z,7300
2017-09-26T10:48:43.904Z,6204
2017-09-26T10:49:43.927Z,6344
2017-09-26T10:50:28.726Z,6892
2017-09-26T10:51:29.388Z,7900
2017-09-26T10:52:29.412Z,8340
2017-09-26T10:53:29.431Z,8748
2017-09-26T10:54:29.460Z,8716
2017-09-26T10:55:29.484Z,8596
2017-09-26T10:57:28.892Z,8544
2017-09-26T10:58:44.146Z,8792
2017-09-26T10:59:29.580Z,8944
2017-09-26T11:00:43.881Z,9080
2017-09-26T11:02:44.246Z,9252
2017-09-26T11:03:29.361Z,9280
2017-09-26T11:04:29.704Z,9192
2017-09-26T11:05:29.725Z,9160
2017-09-26T11:06:29.756Z,9128
2017-09-26T11:07:44.364Z,8860
2017-09-26T11:08:29.834Z,8556
2017-09-26T11:09:29.502Z,7944
2017-09-26T11:10:29.846Z,7360
2017-09-26T11:11:29.876Z,6828
2017-09-26T11:12:29.578Z,6600
2017-09-26T11:13:44.513Z,6260
2017-09-26T11:14:29.623Z,6168
2017-09-26T11:15:29.969Z,6392
2017-09-26T11:16:30.001Z,6888
2017-09-26T11:17:29.701Z,6812
2017-09-26T11:18:30.045Z,6812
2017-09-26T11:19:30.065Z,7076
2017-09-26T11:20:29.776Z,7580
2017-09-26T11:21:29.802Z,8048
2017-09-26T11:22:29.822Z,8240
2017-09-26T11:23:30.160Z,8184
2017-09-26T11:24:29.872Z,8060
2017-09-26T11:25:29.904Z,7876
2017-09-26T11:26:30.243Z,7944
2017-09-26T11:27:29.939Z,7904
2017-09-26T11:28:30.286Z,7712
2017-09-26T11:29:29.999Z,8008
2017-09-26T11:30:29.695Z,8156
2017-09-26T11:31:29.723Z,8272
2017-09-26T11:32:30.388Z,8376
2017-09-26T11:33:30.096Z,7988
2017-09-26T11:34:45.026Z,6768
2017-09-26T11:35:29.821Z,5972
2017-09-26T11:36:30.479Z,5236
2017-09-26T11:37:30.512Z,5064
2017-09-26T11:38:30.216Z,5348
2017-09-26T11:39:30.560Z,5616
2017-09-26T11:40:30.628Z,5260
2017-09-26T11:41:29.964Z,4864
2017-09-26T11:42:30.314Z,4260
2017-09-26T11:43:45.249Z,3892
2017-09-26T11:44:30.674Z,3960
2017-09-26T11:45:59.881Z,4212
2017-09-26T11:46:30.728Z,4560
2017-09-26T11:47:30.754Z,5312
2017-09-26T11:48:30.774Z,5328
2017-09-26T11:49:45.389Z,5720
2017-09-26T11:50:30.829Z,5888
2017-09-26T11:52:30.555Z,6084
2017-09-26T11:53:30.954Z,6060
2017-09-26T11:54:30.925Z,5980
2017-09-26T11:55:30.625Z,5968
2017-09-26T11:56:30.969Z,6152
2017-09-26T11:57:30.669Z,6300
2017-09-26T11:58:30.699Z,6272
2017-09-26T11:59:30.722Z,6384
2017-09-26T12:00:31.070Z,6560
2017-09-26T12:01:45.679Z,6516
2017-09-26T12:03:30.819Z,7224
2017-09-26T12:05:31.186Z,7860
2017-09-26T12:06:31.216Z,7952
2017-09-26T12:07:30.916Z,7844
2017-09-26T12:08:45.850Z,7660
2017-09-26T12:09:31.287Z,7640
2017-09-26T12:10:30.988Z,7720
2017-09-26T12:11:30.697Z,7920
2017-09-26T12:12:31.354Z,8084
2017-09-26T12:13:31.382Z,8072
2017-09-26T12:14:31.092Z,7924
2017-09-26T12:15:31.111Z,7724
2017-09-26T12:16:31.133Z,7588
2017-09-26T12:17:46.070Z,7264
2017-09-26T12:18:31.184Z,7112
2017-09-26T12:19:31.208Z,7440
2017-09-26T12:20:31.549Z,7760
2017-09-26T12:21:46.172Z,8208
2017-09-26T12:22:46.195Z,8624
2017-09-26T12:23:31.311Z,9088
2017-09-26T12:24:31.332Z,9380
2017-09-26T12:25:31.357Z,9688
2017-09-26T12:26:31.062Z,9860
2017-09-26T12:27:31.727Z,10128
2017-09-26T12:28:31.750Z,10504
2017-09-26T12:29:31.452Z,10320
2017-09-26T12:30:31.480Z,11332
2017-09-26T12:31:31.500Z,11396
2017-09-26T12:32:31.526Z,11388
2017-09-26T12:33:46.156Z,11300
2017-09-26T12:34:31.894Z,10696
2017-09-26T12:35:31.603Z,10544
2017-09-26T12:37:46.564Z,10832
2017-09-26T12:38:31.674Z,11820
2017-09-26T12:39:46.292Z,10604
2017-09-26T12:40:32.043Z,10468
2017-09-26T12:41:31.751Z,11580
2017-09-26T12:42:32.091Z,11336
2017-09-26T12:43:32.118Z,11048
2017-09-26T12:44:31.508Z,10856
2017-09-26T12:45:32.165Z,10836
2017-09-26T12:46:32.197Z,10900
2017-09-26T12:47:31.901Z,11408
2017-09-26T12:48:46.200Z,11280
2017-09-26T12:49:32.269Z,11592
2017-09-26T12:50:32.291Z,11252
2017-09-26T12:52:32.033Z,11880
2017-09-26T12:53:46.962Z,11804
2017-09-26T12:54:32.389Z,11600
2017-09-26T12:55:32.418Z,10780
2017-09-26T12:56:32.128Z,10480
2017-09-26T12:57:32.472Z,9940
2017-09-26T12:58:32.194Z,9416
2017-09-26T12:59:32.201Z,9280
2017-09-26T13:00:32.225Z,8836
2017-09-26T13:01:32.248Z,8644
2017-09-26T13:02:32.273Z,8660
2017-09-26T13:03:32.621Z,8096
2017-09-26T13:04:32.323Z,8000
2017-09-26T13:05:32.031Z,7920
2017-09-26T13:06:32.458Z,7860
2017-09-26T13:07:46.991Z,7844
2017-09-26T13:08:32.103Z,7812
2017-09-26T13:09:47.363Z,8176
2017-09-26T13:10:32.790Z,7908
2017-09-26T13:11:32.825Z,7460
2017-09-26T13:12:32.207Z,7228
2017-09-26T13:13:47.456Z,7032
2017-09-26T13:14:47.482Z,6828
2017-09-26T13:15:32.919Z,6520
2017-09-26T13:16:32.623Z,6724
2017-09-26T13:17:32.653Z,6596
2017-09-26T13:18:33.017Z,6476
2017-09-26T13:19:33.016Z,6756
2017-09-26T13:20:47.632Z,6484
2017-09-26T13:21:32.756Z,6420
2017-09-26T13:22:33.093Z,6492
2017-09-26T13:24:32.825Z,6736
2017-09-26T13:25:33.175Z,6584
2017-09-26T13:26:32.876Z,6508
2017-09-26T13:27:32.899Z,6304
2017-09-26T13:28:33.241Z,6704
2017-09-26T13:29:32.629Z,6600
2017-09-26T13:30:32.968Z,6324
2017-09-26T13:31:32.679Z,6128
2017-09-26T13:32:33.340Z,5864
2017-09-26T13:33:33.365Z,5680
2017-09-26T13:34:33.066Z,5408
2017-09-26T13:36:47.712Z,4888
2017-09-26T13:37:33.149Z,4852
2017-09-26T13:38:33.492Z,4792
2017-09-26T13:39:33.198Z,4756
2017-09-26T13:40:48.127Z,4800
2017-09-26T13:41:47.833Z,4704
2017-09-26T13:42:33.322Z,4616
2017-09-26T13:43:33.610Z,4580
2017-09-26T13:44:33.642Z,4340
2017-09-26T13:45:33.340Z,4172
2017-09-26T13:46:33.364Z,3988
2017-09-26T13:47:33.708Z,3772
2017-09-26T13:48:33.414Z,3348
2017-09-26T13:49:33.758Z,2844
2017-09-26T13:50:33.779Z,2872
2017-09-26T13:51:33.537Z,3064
2017-09-26T13:52:48.103Z,3096
2017-09-26T13:53:33.538Z,3060
2017-09-26T13:54:48.152Z,2960
2017-09-26T13:55:33.587Z,3036
2017-09-26T13:56:48.521Z,2936
2017-09-26T13:57:33.957Z,2672
2017-09-26T13:58:48.565Z,2552
2017-09-26T13:59:33.687Z,2552
2017-09-26T14:00:48.616Z,2400
2017-09-26T14:01:34.095Z,2396
2017-09-26T14:03:33.780Z,2704
2017-09-26T14:04:34.126Z,2868
2017-09-26T14:05:33.507Z,2840
2017-09-26T14:06:33.858Z,2756
2017-09-26T14:07:34.227Z,2804
2017-09-26T14:08:48.810Z,2884
2017-09-26T14:09:34.244Z,2876
2017-09-26T14:10:48.541Z,2968
2017-09-26T14:11:33.973Z,3068
2017-09-26T14:12:48.588Z,3316
2017-09-26T14:13:34.344Z,3444
2017-09-26T14:14:34.048Z,3632
2017-09-26T14:15:34.393Z,3788
2017-09-26T14:16:49.004Z,3860
2017-09-26T14:17:33.799Z,3852
2017-09-26T14:18:34.463Z,3840
2017-09-26T14:19:34.481Z,3824
2017-09-26T14:21:33.576Z,3768
2017-09-26T14:22:34.242Z,3756
2017-09-26T14:23:48.858Z,3764
2017-09-26T14:24:34.287Z,3780
2017-09-26T14:25:49.225Z,3780
2017-09-26T14:26:34.649Z,3736
2017-09-26T14:27:34.684Z,3740
2017-09-26T14:29:49.320Z,3904
2017-09-26T14:30:49.344Z,3960
2017-09-26T14:31:34.461Z,4028
2017-09-26T14:32:34.481Z,4084
2017-09-26T14:33:34.823Z,4176
2017-09-26T14:34:34.545Z,4288
2017-09-26T14:35:34.552Z,4384
2017-09-26T14:36:34.901Z,4580
2017-09-26T14:37:34.604Z,4760
2017-09-26T14:38:34.627Z,4980